Ride Results

Oss Foley Memorial (30-10-2010)
Ride distance: 80.0 km

Outcomes - Oss Foley Memorial (30-10-2010)
Division No. of Entries Retired / DNE Completed Withdrawn Ineligible V/O Percentage Completed
HW 7 - 5 - - 2 71.43%
MW 19 - 16 1 - 2 84.21%
LW 6 - 5 - - 1 83.33%
JN 4 - 4 - - - 100.00%
Totals 36 - 30 1 - 5 83.33%
Results - Oss Foley Memorial (30-10-2010)
No. Rider Horse Place Time Leg Speeds Total
Km/Hr
H/R bpm
Heavyweight
137 John Shoobridge Fantasia 1 5:58:00 14.4, 12.4 13.41 52, 48, 54 (Avg:51)
171 Craig Wall Undurra Braveheart 1 (BC) 5:58:00 14.9, 12.1 13.41 40, 51, 53 (Avg:52)
38 Tony Purton Jeshar Park Shahriann 3 7:25:03 12.7, 9.3 10.79 49, 49, 56 (Avg:52)
191 Kaneko Junji Sandine Versacee 4 8:34:01 10.7, 8.2 9.34 39, 44, 57 (Avg:50)
209 Masafumi Tanaka Sandine Aramis 5 8:34:04 10.7, 8.2 9.34 40, 46, 54 (Avg:50)
70 Allan Wyllie At Dial Range Doobie Heart Rate L2 0:00:00 11.2, 9.2 - 45, 49, 65 (Avg:57)
214 Dennis Foley Jnr Highland View Eclipse Heart Rate L1 0:00:00 15.5 - 37, 73 (Avg:73)
Middleweight
132 Carolyn Foley-Jones Undurra Shimon 1 (BC) 5:46:02 17.1, 11.6 13.87 48, 49, 59 (Avg:54)
213 Ricky Febey Wild 2 6:58:00 13.4, 9.9 11.48 38, 45, 54 (Avg:49)
187 Heather Hampson Alcheringa Shopanii 2 6:58:00 13.5, 9.9 11.48 36, 48, 53 (Avg:50)
88 Anthony Bloom Kerribea 4 6:59:00 13.4, 9.9 11.46 40, 49, 57 (Avg:53)
4 Helen Bowkett Jordanvale Snowbird 5 7:14:01 12.9, 9.6 11.06 33, 48, 48 (Avg:48)
136 Kaye Mitchell Harry H 6 7:25:02 12.7, 9.3 10.79 43, 46, 49 (Avg:47)
180 Nicole Ford Duke 7 7:46:01 11.3, 9.4 10.30 54, 48, 57 (Avg:52)
46 Anna Volkmann Highland View General 8 7:46:03 11.3, 9.4 10.30 40, 44, 53 (Avg:48)
69 Tracey Wyllie At Dial Range Diva 9 7:53:03 11.2, 9.2 10.15 47, 46, 59 (Avg:52)
101 Wendy Rand Shayelle Boh Zamm 10 7:55:01 11.3, 9.0 10.10 36, 44, 60 (Avg:52)
142 Shayne Williams Shayelle Mi Mi 11 7:55:02 11.3, 9.0 10.10 37, 48, 60 (Avg:54)
211 Sandy Sims Undurra Geisha 12 7:57:00 13.0, 8.1 10.06 42, 45, 49 (Avg:47)
82 Hiroshi Sakaguchi Highland View Zaarla 13 8:34:02 10.7, 8.2 9.34 40, 40, 53 (Avg:46)
207 Kiyoshi Matsui Highland View Beau 14 8:34:03 10.7, 8.2 9.34 44, 51, 55 (Avg:53)
32 Donna Wall Lauralyn Bayeta 15 8:39:01 10.9, 7.9 9.25 37, 45, 50 (Avg:47)
143 Pauline Goodwin Marley Hosanna 16 8:39:02 10.9, 7.9 9.25 45, 46, 48 (Avg:47)
176 Greg Burford Bullarto Fiorelli Lame L1 0:00:00 14.2 - 48, 50 (Avg:50)
169 Brent Marshall Braveheart Charlie Heart Rate L1 0:00:00 12.6 - 49, 59 (Avg:59)
68 Janine Parr Sandine Ardagh Withdrawn L1 0:00:00 - - 44, 49 (Avg:49)
Lightweight
51 Debbie Leary Kasdell Reprieve 1 5:41:00 17.0, 11.9 14.08 44, 47, 54 (Avg:50)
179 Debbie Grull Lauralyn Notorious 2 (BC) 5:46:01 15.5, 12.4 13.87 44, 46, 52 (Avg:49)
161 Mary Parkinson Elphyn Shadow 3 6:58:02 13.1, 10.1 11.48 48, 49, 57 (Avg:53)
100 Trish Smith Beaucheval Akhiran 4 7:14:02 12.6, 9.7 11.06 37, 47, 59 (Avg:53)
200 Kristy Matheson Highland View JJ 5 7:46:02 11.3, 9.4 10.30 34, 46, 52 (Avg:49)
8 Jean Treloar Glenleigh Anzac Lame L1 0:00:00 13.4 - 50, 50 (Avg:50)
Junior
125 Brooke Brown-Cordell Yondover Ridge Mojo 1 (BC) 5:46:03 15.6, 12.4 13.87 33, 48, 56 (Avg:52)
217 Alice Mitchell Beer Street Takone 2 7:25:01 12.7, 9.3 10.79 40, 43, 49 (Avg:46)
147 Rhiannon Clayton Die Kinder Jag 3 7:53:02 11.2, 9.2 10.15 37, 45, 52 (Avg:48)
154 Sarah Parker King Park Aberdeen Pelion 4 8:26:00 10.8, 8.4 9.49 34, 43, 48 (Avg:45)